Terminal Aerodrome Forecast
Issued by NWS Atlanta, GA

Home | Current Version | Previous Version | Text Only | Print | Product List | Glossary On
Versions: 1 2 3 4 5 6 7 8 9 10 11 12 13 14 15 16 17 18
000
FTUS42 KFFC 300533
TAFCSG
TAF
KCSG 300533Z 3006/3106 28004KT P6SM SCT070 SCT250
     FM301400 28006KT P6SM FEW030
     FM301600 26008KT P6SM SCT050 PROB30 3020/3024 5SM -TSRA
      BKN035CB
     FM310000 25004KT P6SM SCT070 SCT250=

USA.gov is the U.S. government's official web portal to all federal, state and local government web resources and services.